createdAt,value
2019-02-07T00:00:37.514Z,37.17
2019-02-07T00:03:06.430Z,32.23
2019-02-07T00:05:35.070Z,38.03
2019-02-07T00:08:03.886Z,32.60
2019-02-07T00:10:32.646Z,36.13
2019-02-07T00:13:01.355Z,38.80
2019-02-07T00:15:30.137Z,36.73
2019-02-07T00:17:58.874Z,36.93
2019-02-07T00:20:27.588Z,32.60
2019-02-07T00:22:56.305Z,32.93
2019-02-07T00:25:25.074Z,32.13
2019-02-07T00:27:54.015Z,34.47
2019-02-07T00:30:23.231Z,33.23
2019-02-07T00:32:51.974Z,31.47
2019-02-07T00:35:20.680Z,35.50
2019-02-07T00:37:49.425Z,32.73
2019-02-07T00:40:20.213Z,35.60
2019-02-07T00:42:49.423Z,30.97
2019-02-07T00:45:19.267Z,34.53
2019-02-07T00:47:48.251Z,28.87
2019-02-07T00:50:19.807Z,27.60
2019-02-07T00:52:48.530Z,35.17
2019-02-07T00:55:19.512Z,29.90
2019-02-07T00:57:48.255Z,34.07
2019-02-07T01:00:25.086Z,31.57
2019-02-07T01:02:53.850Z,36.40
2019-02-07T01:05:23.327Z,35.63
2019-02-07T01:07:52.529Z,31.60
2019-02-07T01:10:27.003Z,35.90
2019-02-07T01:12:55.760Z,34.17
2019-02-07T01:15:25.318Z,38.90
2019-02-07T01:17:54.158Z,29.70
2019-02-07T01:20:22.867Z,28.77
2019-02-07T01:22:51.575Z,33.80
2019-02-07T01:25:22.655Z,30.90
2019-02-07T01:27:51.463Z,34.17
2019-02-07T01:30:28.083Z,32.27
2019-02-07T01:32:56.806Z,34.60
2019-02-07T01:35:25.542Z,30.37
2019-02-07T01:37:54.555Z,31.43
2019-02-07T01:40:23.567Z,33.20
2019-02-07T01:42:52.275Z,32.90
2019-02-07T01:45:25.798Z,41.83
2019-02-07T01:47:54.527Z,34.33
2019-02-07T01:50:24.842Z,35.10
2019-02-07T01:52:53.980Z,30.90
2019-02-07T01:55:22.891Z,36.53
2019-02-07T01:57:51.590Z,35.27
2019-02-07T02:00:21.016Z,38.50
2019-02-07T02:02:50.424Z,35.30
2019-02-07T02:05:20.326Z,38.33
2019-02-07T02:07:50.609Z,38.53
2019-02-07T02:10:21.963Z,32.60
2019-02-07T02:12:50.863Z,36.87
2019-02-07T02:15:24.562Z,35.63
2019-02-07T02:17:51.562Z,32.80
2019-02-07T02:20:23.127Z,32.90
2019-02-07T02:22:52.175Z,37.43
2019-02-07T02:25:21.186Z,35.53
2019-02-07T02:27:49.995Z,39.63
2019-02-07T02:30:23.696Z,34.63
2019-02-07T02:32:52.415Z,37.77
2019-02-07T02:35:21.557Z,36.83
2019-02-07T02:37:50.294Z,39.57
2019-02-07T02:40:19.207Z,37.80
2019-02-07T02:42:47.857Z,34.53
2019-02-07T02:45:18.950Z,35.73
2019-02-07T02:47:47.627Z,32.63
2019-02-07T02:50:18.223Z,37.30
2019-02-07T02:52:46.898Z,31.83
2019-02-07T02:55:29.734Z,31.90
2019-02-07T02:57:58.203Z,39.03
2019-02-07T03:00:34.549Z,34.57
2019-02-07T03:03:10.409Z,29.47
2019-02-07T03:05:49.443Z,34.47
2019-02-07T03:08:22.480Z,29.87
2019-02-07T03:11:11.038Z,36.07
2019-02-07T03:13:43.899Z,38.07
2019-02-07T03:16:14.170Z,30.07
2019-02-07T03:18:44.367Z,34.67
2019-02-07T03:21:14.536Z,32.53
2019-02-07T03:23:53.791Z,33.60
2019-02-07T03:26:30.115Z,36.90
2019-02-07T03:29:06.191Z,37.53
2019-02-07T03:31:39.809Z,39.47
2019-02-07T03:34:16.076Z,30.53
2019-02-07T03:36:46.381Z,30.57
2019-02-07T03:39:16.496Z,36.60
2019-02-07T03:41:49.679Z,33.40
2019-02-07T03:44:26.248Z,31.73
2019-02-07T03:47:12.659Z,36.00
2019-02-07T03:49:57.861Z,28.93
2019-02-07T03:52:39.770Z,34.80
2019-02-07T03:55:12.802Z,34.33
2019-02-07T03:57:48.852Z,29.17
2019-02-07T04:00:31.411Z,34.73
2019-02-07T04:03:07.480Z,29.37
2019-02-07T04:05:43.769Z,37.53
2019-02-07T04:08:16.639Z,27.90
2019-02-07T04:10:46.747Z,30.90
2019-02-07T04:13:16.930Z,29.60
2019-02-07T04:15:49.861Z,35.30
2019-02-07T04:18:28.907Z,32.97
2019-02-07T04:21:08.458Z,34.77
2019-02-07T04:23:38.630Z,33.37
2019-02-07T04:26:08.718Z,27.97
2019-02-07T04:28:38.915Z,27.83
2019-02-07T04:31:09.086Z,32.73
2019-02-07T04:33:39.500Z,29.67
2019-02-07T04:36:15.699Z,28.00
2019-02-07T04:38:49.576Z,29.80
2019-02-07T04:41:22.794Z,29.17
2019-02-07T04:43:53.267Z,31.73
2019-02-07T04:46:27.359Z,34.07
2019-02-07T04:49:14.323Z,30.00
2019-02-07T04:52:01.515Z,33.90
2019-02-07T04:54:31.683Z,29.73
2019-02-07T04:57:04.950Z,33.47
2019-02-07T04:59:47.087Z,31.30
2019-02-07T05:02:23.340Z,31.33
2019-02-07T05:04:53.648Z,31.53
2019-02-07T05:07:35.781Z,35.40
2019-02-07T05:10:24.260Z,30.97
2019-02-07T05:13:11.035Z,30.27
2019-02-07T05:15:46.915Z,32.90
2019-02-07T05:18:33.674Z,35.10
2019-02-07T05:21:06.583Z,32.97
2019-02-07T05:23:42.226Z,35.60
2019-02-07T05:26:12.328Z,32.83
2019-02-07T05:28:42.921Z,27.27
2019-02-07T05:31:13.113Z,32.40
2019-02-07T05:33:46.207Z,36.07
2019-02-07T05:36:33.006Z,33.03
2019-02-07T05:39:06.279Z,32.77
2019-02-07T05:41:39.560Z,31.20
2019-02-07T05:44:24.379Z,28.93
2019-02-07T05:46:54.581Z,34.07
2019-02-07T05:49:43.518Z,31.40
2019-02-07T05:52:16.827Z,35.60
2019-02-07T05:54:49.827Z,29.40
2019-02-07T05:57:35.198Z,28.33
2019-02-07T06:00:21.978Z,30.93
2019-02-07T06:03:01.209Z,32.87
2019-02-07T06:05:34.235Z,35.27
2019-02-07T06:08:23.269Z,32.53
2019-02-07T06:10:53.401Z,29.60
2019-02-07T06:13:39.678Z,27.70
2019-02-07T06:16:28.086Z,32.20
2019-02-07T06:19:10.619Z,32.33
2019-02-07T06:21:40.732Z,31.73
2019-02-07T06:24:27.207Z,35.37
2019-02-07T06:27:00.090Z,32.20
2019-02-07T06:29:33.095Z,29.10
2019-02-07T06:32:06.063Z,30.97
2019-02-07T06:34:42.698Z,31.40
2019-02-07T06:37:13.007Z,29.70
2019-02-07T06:39:49.419Z,28.77
2019-02-07T06:42:22.573Z,27.37
2019-02-07T06:45:06.194Z,30.40
2019-02-07T06:47:45.223Z,27.93
2019-02-07T06:50:22.131Z,28.33
2019-02-07T06:52:55.411Z,31.10
2019-02-07T06:55:38.011Z,25.73
2019-02-07T06:58:14.217Z,30.17
2019-02-07T07:00:44.410Z,25.00
2019-02-07T07:03:17.167Z,31.73
2019-02-07T07:06:03.694Z,28.53
2019-02-07T07:08:42.960Z,28.63
2019-02-07T07:11:19.311Z,32.10
2019-02-07T07:13:51.972Z,28.03
2019-02-07T07:16:24.865Z,26.33
2019-02-07T07:19:11.479Z,31.80
2019-02-07T07:21:44.654Z,34.20
2019-02-07T07:24:23.593Z,31.63
2019-02-07T07:27:00.227Z,31.50
2019-02-07T07:29:33.119Z,26.37
2019-02-07T07:32:03.372Z,33.00
2019-02-07T07:34:42.168Z,28.07
2019-02-07T07:37:29.287Z,35.73
2019-02-07T07:40:08.791Z,29.53
2019-02-07T07:42:55.243Z,30.90
2019-02-07T07:45:37.448Z,29.87
2019-02-07T07:48:07.984Z,32.77
2019-02-07T07:50:53.224Z,27.67
2019-02-07T07:53:32.510Z,33.30
2019-02-07T07:56:11.643Z,34.37
2019-02-07T07:58:57.750Z,33.10
2019-02-07T08:01:33.950Z,35.10
2019-02-07T08:04:15.912Z,29.67
2019-02-07T08:07:04.171Z,29.80
2019-02-07T08:09:34.443Z,29.47
2019-02-07T08:12:13.547Z,32.20
2019-02-07T08:14:43.675Z,35.53
2019-02-07T08:17:19.855Z,30.03
2019-02-07T08:19:56.201Z,30.40
2019-02-07T08:22:42.710Z,29.53
2019-02-07T08:25:29.027Z,28.63
2019-02-07T08:28:15.650Z,30.83
2019-02-07T08:30:48.560Z,26.73
2019-02-07T08:33:34.961Z,25.20
2019-02-07T08:36:20.450Z,32.97
2019-02-07T08:38:50.691Z,31.50
2019-02-07T08:41:23.831Z,29.13
2019-02-07T08:44:13.853Z,28.70
2019-02-07T08:46:50.919Z,27.47
2019-02-07T08:49:21.103Z,31.80
2019-02-07T08:52:00.263Z,31.00
2019-02-07T08:54:45.452Z,31.63
2019-02-07T08:57:24.559Z,29.20
2019-02-07T09:00:07.022Z,31.43
2019-02-07T09:02:53.248Z,31.10
2019-02-07T09:05:23.506Z,33.77
2019-02-07T09:07:56.412Z,29.97
2019-02-07T09:10:38.887Z,30.23
2019-02-07T09:13:25.475Z,26.63
2019-02-07T09:15:55.771Z,28.03
2019-02-07T09:18:42.271Z,35.93
2019-02-07T09:21:21.515Z,35.13
2019-02-07T09:23:54.992Z,32.63
2019-02-07T09:26:30.897Z,29.80
2019-02-07T09:29:06.770Z,31.30
2019-02-07T09:31:40.051Z,28.97
2019-02-07T09:34:13.153Z,33.63
2019-02-07T09:36:49.333Z,30.60
2019-02-07T09:39:35.780Z,30.93
2019-02-07T09:42:22.011Z,37.50
2019-02-07T09:44:54.721Z,30.87
2019-02-07T09:47:41.412Z,32.67
2019-02-07T09:50:24.283Z,33.33
2019-02-07T09:53:00.483Z,27.60
2019-02-07T09:55:30.651Z,29.93
2019-02-07T09:58:09.668Z,31.13
2019-02-07T10:00:40.123Z,30.23
2019-02-07T10:03:16.487Z,29.83
2019-02-07T10:05:49.396Z,28.63
2019-02-07T10:08:22.678Z,30.27
2019-02-07T10:11:10.843Z,27.77
2019-02-07T10:13:57.697Z,31.33
2019-02-07T10:16:30.597Z,26.73
2019-02-07T10:19:17.511Z,30.27
2019-02-07T10:21:47.674Z,35.20
2019-02-07T10:24:17.794Z,33.40
2019-02-07T10:26:50.671Z,33.30
2019-02-07T10:29:21.169Z,29.40
2019-02-07T10:32:07.782Z,29.93
2019-02-07T10:34:38.044Z,28.17
2019-02-07T10:37:24.487Z,31.37
2019-02-07T10:39:54.684Z,32.53
2019-02-07T10:42:41.055Z,31.70
2019-02-07T10:45:29.563Z,29.23
2019-02-07T10:48:11.748Z,32.00
2019-02-07T10:50:50.913Z,25.30
2019-02-07T10:53:21.010Z,26.70
2019-02-07T10:55:59.844Z,27.00
2019-02-07T10:58:33.100Z,31.03
2019-02-07T11:01:03.442Z,28.27
2019-02-07T11:03:49.994Z,28.27
2019-02-07T11:06:36.828Z,29.20
2019-02-07T11:09:14.661Z,34.90
2019-02-07T11:11:44.847Z,28.57
2019-02-07T11:14:15.078Z,27.63
2019-02-07T11:16:50.924Z,28.60
2019-02-07T11:19:35.853Z,29.53
2019-02-07T11:22:06.690Z,26.10
2019-02-07T11:24:48.651Z,26.63
2019-02-07T11:27:34.956Z,32.13
2019-02-07T11:30:16.402Z,24.10
2019-02-07T11:32:46.609Z,23.63
2019-02-07T11:35:34.831Z,28.13
2019-02-07T11:38:10.999Z,27.33
2019-02-07T11:40:52.999Z,29.93
2019-02-07T11:43:32.047Z,25.53
2019-02-07T11:46:14.131Z,30.93
2019-02-07T11:48:53.395Z,27.67
2019-02-07T11:51:26.537Z,24.80
2019-02-07T11:53:56.779Z,28.30
2019-02-07T11:56:28.980Z,32.13
2019-02-07T11:59:16.952Z,25.47
2019-02-07T12:02:08.875Z,26.60
2019-02-07T12:04:36.615Z,26.57
2019-02-07T12:07:25.108Z,29.70
2019-02-07T12:09:55.280Z,28.47
2019-02-07T12:12:43.592Z,30.80
2019-02-07T12:15:19.652Z,30.83
2019-02-07T12:17:58.811Z,31.07
2019-02-07T12:20:47.475Z,28.73
2019-02-07T12:23:23.471Z,28.17
2019-02-07T12:25:53.785Z,25.50
2019-02-07T12:28:23.954Z,25.30
2019-02-07T12:31:12.816Z,28.17
2019-02-07T12:33:43.047Z,25.63
2019-02-07T12:36:22.399Z,30.00
2019-02-07T12:39:01.467Z,26.67
2019-02-07T12:41:37.604Z,27.37
2019-02-07T12:44:10.443Z,27.97
2019-02-07T12:46:56.807Z,25.73
2019-02-07T12:49:43.519Z,28.07
2019-02-07T12:52:16.755Z,31.70
2019-02-07T12:54:47.109Z,36.97
2019-02-07T12:57:17.587Z,30.67
2019-02-07T13:00:04.279Z,27.17
2019-02-07T13:02:50.840Z,30.20
2019-02-07T13:05:24.300Z,30.67
2019-02-07T13:07:57.218Z,24.57
2019-02-07T13:10:36.310Z,23.63
2019-02-07T13:13:23.633Z,27.73
2019-02-07T13:15:53.787Z,25.70
2019-02-07T13:18:32.728Z,29.77
2019-02-07T13:21:05.846Z,24.03
2019-02-07T13:23:39.179Z,26.53
2019-02-07T13:26:11.859Z,26.67
2019-02-07T13:29:01.460Z,27.87
2019-02-07T13:31:47.065Z,28.73
2019-02-07T13:34:29.222Z,27.93
2019-02-07T13:37:05.293Z,27.97
2019-02-07T13:39:38.208Z,29.30
2019-02-07T13:42:08.734Z,30.87
2019-02-07T13:44:41.779Z,26.27
2019-02-07T13:47:21.009Z,24.03
2019-02-07T13:49:52.269Z,25.03
2019-02-07T13:52:39.249Z,27.70
2019-02-07T13:55:15.434Z,28.83
2019-02-07T13:57:57.688Z,29.63
2019-02-07T14:00:40.101Z,31.03
2019-02-07T14:03:13.271Z,28.97
2019-02-07T14:06:01.556Z,34.07
2019-02-07T14:08:46.764Z,32.30
2019-02-07T14:11:25.753Z,26.37
2019-02-07T14:13:56.046Z,27.77
2019-02-07T14:16:42.560Z,28.77
2019-02-07T14:19:15.899Z,30.27
2019-02-07T14:22:02.853Z,29.43
2019-02-07T14:24:35.792Z,31.17
2019-02-07T14:27:06.125Z,30.63
2019-02-07T14:29:42.355Z,31.30
2019-02-07T14:32:25.412Z,27.30
2019-02-07T14:34:58.564Z,26.97
2019-02-07T14:37:43.985Z,31.77
2019-02-07T14:40:17.017Z,36.47
2019-02-07T14:42:56.620Z,31.60
2019-02-07T14:45:32.832Z,31.97
2019-02-07T14:48:01.577Z,27.47
2019-02-07T14:50:30.207Z,31.97
2019-02-07T14:52:58.736Z,27.47
2019-02-07T14:55:27.308Z,29.50
2019-02-07T14:57:56.003Z,30.23
2019-02-07T15:00:26.033Z,26.87
2019-02-07T15:02:54.562Z,31.10
2019-02-07T15:05:23.459Z,33.30
2019-02-07T15:07:52.063Z,32.90
2019-02-07T15:10:21.140Z,30.83
2019-02-07T15:12:49.854Z,27.50
2019-02-07T15:15:21.224Z,28.27
2019-02-07T15:17:49.778Z,33.77
2019-02-07T15:20:25.892Z,31.27
2019-02-07T15:22:48.942Z,25.30
2019-02-07T15:25:17.742Z,28.83
2019-02-07T15:27:46.469Z,29.20
2019-02-07T15:30:20.349Z,27.03
2019-02-07T15:32:49.019Z,29.23
2019-02-07T15:35:29.416Z,36.87
2019-02-07T15:37:58.403Z,31.67
2019-02-07T15:40:27.156Z,28.43
2019-02-07T15:42:55.666Z,31.23
2019-02-07T15:45:25.636Z,32.43
2019-02-07T15:47:54.309Z,33.90
2019-02-07T15:50:37.049Z,36.30
2019-02-07T15:52:57.531Z,33.53
2019-02-07T15:55:26.343Z,33.63
2019-02-07T15:57:55.015Z,34.97
2019-02-07T16:00:33.284Z,44.87
2019-02-07T16:03:03.400Z,40.37
2019-02-07T16:05:32.349Z,43.93
2019-02-07T16:08:00.907Z,38.60
2019-02-07T16:10:29.589Z,42.27
2019-02-07T16:12:58.155Z,40.03
2019-02-07T16:15:26.749Z,36.27
2019-02-07T16:17:55.480Z,39.90
2019-02-07T16:20:24.749Z,29.60
2019-02-07T16:22:53.284Z,28.03
2019-02-07T16:25:21.914Z,32.33
2019-02-07T16:27:50.531Z,33.63
2019-02-07T16:30:21.529Z,31.93
2019-02-07T16:32:50.232Z,38.90
2019-02-07T16:35:20.676Z,34.83
2019-02-07T16:37:50.272Z,35.50
2019-02-07T16:40:22.861Z,37.20
2019-02-07T16:42:51.868Z,32.73
2019-02-07T16:45:25.617Z,37.03
2019-02-07T16:47:54.275Z,35.10
2019-02-07T16:50:25.627Z,35.30
2019-02-07T16:52:54.258Z,33.63
2019-02-07T16:55:22.889Z,40.03
2019-02-07T16:57:51.496Z,42.57
2019-02-07T17:00:43.581Z,36.50
2019-02-07T17:03:12.103Z,36.40
2019-02-07T17:05:40.723Z,36.67
2019-02-07T17:08:09.323Z,35.20
2019-02-07T17:10:39.823Z,35.27
2019-02-07T17:13:10.782Z,35.73
2019-02-07T17:15:39.766Z,40.43
2019-02-07T17:18:08.374Z,34.67
2019-02-07T17:20:37.268Z,37.13
2019-02-07T17:23:06.174Z,40.43
2019-02-07T17:25:34.851Z,35.17
2019-02-07T17:28:03.475Z,35.93
2019-02-07T17:30:32.743Z,39.43
2019-02-07T17:33:01.564Z,34.87
2019-02-07T17:35:31.698Z,30.67
2019-02-07T17:38:00.223Z,35.27
2019-02-07T17:40:29.216Z,36.07
2019-02-07T17:42:57.743Z,30.00
2019-02-07T17:45:31.278Z,41.00
2019-02-07T17:47:59.863Z,43.37
2019-02-07T17:50:34.204Z,46.23
2019-02-07T17:53:08.124Z,49.20
2019-02-07T17:55:36.646Z,47.53
2019-02-07T17:58:06.631Z,43.53
2019-02-07T18:00:49.019Z,44.63
2019-02-07T18:03:17.638Z,40.67
2019-02-07T18:05:46.335Z,140.63
2019-02-07T18:08:15.039Z,112.37
2019-02-07T18:10:43.704Z,59.10
2019-02-07T18:13:12.327Z,124.03
2019-02-07T18:15:40.929Z,66.77
2019-02-07T18:18:09.684Z,48.77
2019-02-07T18:20:38.278Z,47.43
2019-02-07T18:23:06.983Z,34.50
2019-02-07T18:25:35.516Z,38.67
2019-02-07T18:28:05.020Z,41.93
2019-02-07T18:30:33.639Z,43.50
2019-02-07T18:33:02.384Z,57.90
2019-02-07T18:35:31.001Z,43.73
2019-02-07T18:37:59.532Z,36.83
2019-02-07T18:40:32.890Z,43.83
2019-02-07T18:43:01.912Z,43.53
2019-02-07T18:45:30.716Z,37.30
2019-02-07T18:47:59.393Z,36.43
2019-02-07T18:50:35.899Z,32.07
2019-02-07T18:53:05.081Z,35.77
2019-02-07T18:55:33.766Z,34.47
2019-02-07T18:58:02.668Z,30.33
2019-02-07T19:00:35.960Z,25.93
2019-02-07T19:03:06.410Z,24.13
2019-02-07T19:05:35.076Z,24.30
2019-02-07T19:08:04.211Z,24.80
2019-02-07T19:10:32.820Z,27.50
2019-02-07T19:13:01.724Z,23.30
2019-02-07T19:15:39.270Z,25.03
2019-02-07T19:18:07.870Z,20.57
2019-02-07T19:20:36.492Z,27.93
2019-02-07T19:23:06.154Z,26.70
2019-02-07T19:25:34.706Z,27.00
2019-02-07T19:28:03.660Z,30.60
2019-02-07T19:30:33.559Z,27.97
2019-02-07T19:33:02.231Z,22.80
2019-02-07T19:35:30.824Z,21.37
2019-02-07T19:37:59.383Z,20.07
2019-02-07T19:40:28.058Z,31.50
2019-02-07T19:42:57.048Z,51.20
2019-02-07T19:45:29.000Z,46.77
2019-02-07T19:47:57.629Z,42.47
2019-02-07T19:50:29.359Z,39.83
2019-02-07T19:52:58.156Z,46.77
2019-02-07T19:55:31.487Z,68.10
2019-02-07T19:58:00.269Z,100.30
2019-02-07T20:00:33.069Z,98.37
2019-02-07T20:03:02.043Z,87.20
2019-02-07T20:05:30.931Z,84.60
2019-02-07T20:07:59.528Z,71.00
2019-02-07T20:10:29.429Z,75.70
2019-02-07T20:12:58.809Z,85.03
2019-02-07T20:15:36.090Z,62.13
2019-02-07T20:18:07.256Z,63.00
2019-02-07T20:20:36.175Z,51.43
2019-02-07T20:23:05.081Z,52.50
2019-02-07T20:25:33.784Z,49.57
2019-02-07T20:28:02.607Z,45.97
2019-02-07T20:30:36.670Z,48.47
2019-02-07T20:33:06.382Z,46.13
2019-02-07T20:35:35.068Z,46.07
2019-02-07T20:38:04.344Z,44.67
2019-02-07T20:40:32.943Z,49.63
2019-02-07T20:43:02.066Z,50.40
2019-02-07T20:45:30.586Z,58.63
2019-02-07T20:47:59.119Z,68.60
2019-02-07T20:50:47.084Z,50.43
2019-02-07T20:53:17.475Z,51.57
2019-02-07T20:55:46.387Z,51.47
2019-02-07T20:58:14.985Z,51.50
2019-02-07T21:00:43.671Z,48.00
2019-02-07T21:03:12.198Z,44.33
2019-02-07T21:05:40.802Z,56.63
2019-02-07T21:08:09.516Z,51.90
2019-02-07T21:10:39.082Z,50.47
2019-02-07T21:13:08.075Z,62.83
2019-02-07T21:15:36.981Z,57.00
2019-02-07T21:18:06.180Z,61.70
2019-02-07T21:20:34.789Z,54.13
2019-02-07T21:23:03.572Z,54.37
2019-02-07T21:25:41.304Z,53.53
2019-02-07T21:28:10.200Z,44.40
2019-02-07T21:30:38.799Z,45.53
2019-02-07T21:33:07.395Z,53.10
2019-02-07T21:35:36.306Z,52.57
2019-02-07T21:38:06.274Z,46.17
2019-02-07T21:40:35.260Z,48.10
2019-02-07T21:43:04.431Z,42.33
2019-02-07T21:45:33.229Z,57.97
2019-02-07T21:48:01.923Z,59.40
2019-02-07T21:50:32.277Z,60.00
2019-02-07T21:53:00.907Z,55.03
2019-02-07T21:55:30.991Z,51.43
2019-02-07T21:57:59.655Z,55.10
2019-02-07T22:00:31.215Z,52.47
2019-02-07T22:02:59.918Z,56.53
2019-02-07T22:05:28.840Z,53.73
2019-02-07T22:07:57.373Z,53.33
2019-02-07T22:10:26.154Z,47.73
2019-02-07T22:12:54.874Z,44.90
2019-02-07T22:15:27.763Z,42.93
2019-02-07T22:17:56.503Z,55.37
2019-02-07T22:20:29.362Z,44.07
2019-02-07T22:22:58.635Z,43.30
2019-02-07T22:25:27.327Z,44.47
2019-02-07T22:27:55.934Z,44.80
2019-02-07T22:30:27.816Z,44.00
2019-02-07T22:32:56.583Z,43.07
2019-02-07T22:35:25.354Z,41.83
2019-02-07T22:37:54.049Z,41.63
2019-02-07T22:40:24.418Z,48.60
2019-02-07T22:42:53.326Z,48.00
2019-02-07T22:45:26.591Z,50.77
2019-02-07T22:47:55.292Z,42.93
2019-02-07T22:50:25.582Z,47.50
2019-02-07T22:52:57.088Z,53.17
2019-02-07T22:55:24.836Z,46.73
2019-02-07T22:57:53.436Z,42.67
2019-02-07T23:00:38.847Z,40.40
2019-02-07T23:03:15.804Z,34.73
2019-02-07T23:05:44.527Z,34.90
2019-02-07T23:08:13.519Z,25.43
2019-02-07T23:10:42.785Z,32.40
2019-02-07T23:13:11.759Z,25.50
2019-02-07T23:15:40.354Z,23.20
2019-02-07T23:18:09.220Z,25.50
2019-02-07T23:20:37.848Z,20.53
2019-02-07T23:23:10.930Z,19.93
2019-02-07T23:25:40.256Z,18.50
2019-02-07T23:28:09.115Z,20.67
2019-02-07T23:30:37.644Z,25.30
2019-02-07T23:33:06.639Z,22.57
2019-02-07T23:35:35.240Z,16.80
2019-02-07T23:38:04.733Z,21.80
2019-02-07T23:40:33.261Z,16.80
2019-02-07T23:43:01.857Z,16.93
2019-02-07T23:45:30.497Z,17.13
2019-02-07T23:47:59.000Z,18.07
2019-02-07T23:50:27.626Z,18.87
2019-02-07T23:52:56.153Z,19.97
2019-02-07T23:55:24.805Z,26.63
2019-02-07T23:57:53.407Z,25.70
